createdAt,value
2022-11-03T00:01:48.128Z,8.08
2022-11-03T00:04:17.935Z,8.07
2022-11-03T00:06:46.849Z,8.01
2022-11-03T00:09:15.810Z,7.96
2022-11-03T00:11:45.623Z,7.95
2022-11-03T00:14:14.825Z,7.88
2022-11-03T00:16:42.839Z,7.81
2022-11-03T00:19:11.669Z,7.76
2022-11-03T00:21:39.219Z,7.73
2022-11-03T00:24:07.103Z,7.71
2022-11-03T00:26:36.036Z,7.70
2022-11-03T00:29:11.825Z,7.62
2022-11-03T00:31:42.047Z,7.62
2022-11-03T00:34:09.632Z,7.62
2022-11-03T00:36:39.654Z,7.63
2022-11-03T00:39:07.736Z,7.62
2022-11-03T00:41:35.723Z,7.51
2022-11-03T00:44:03.101Z,7.53
2022-11-03T00:46:30.772Z,7.48
2022-11-03T00:48:58.395Z,7.47
2022-11-03T00:51:27.772Z,7.42
2022-11-03T00:53:56.309Z,7.37
2022-11-03T00:56:29.000Z,7.37
2022-11-03T00:58:58.367Z,7.35
2022-11-03T01:01:28.149Z,7.31
2022-11-03T01:04:15.505Z,7.26
2022-11-03T01:06:51.400Z,7.20
2022-11-03T01:09:27.495Z,7.22
2022-11-03T01:12:15.232Z,7.19
2022-11-03T01:14:46.565Z,7.16
2022-11-03T01:17:16.579Z,7.16
2022-11-03T01:19:43.963Z,7.05
2022-11-03T01:22:11.961Z,7.06
2022-11-03T01:24:43.145Z,7.02
2022-11-03T01:27:15.878Z,7.03
2022-11-03T01:29:43.774Z,7.02
2022-11-03T01:32:11.719Z,7.00
2022-11-03T01:34:39.350Z,7.00
2022-11-03T01:37:07.461Z,6.97
2022-11-03T01:39:34.730Z,6.96
2022-11-03T01:42:02.699Z,6.93
2022-11-03T01:44:37.954Z,6.91
2022-11-03T01:47:22.146Z,6.86
2022-11-03T01:50:13.564Z,6.77
2022-11-03T01:52:44.435Z,6.82
2022-11-03T01:55:14.985Z,6.80
2022-11-03T01:57:55.964Z,6.80
2022-11-03T02:00:23.207Z,6.76
2022-11-03T02:02:51.161Z,6.73
2022-11-03T02:05:18.971Z,6.73
2022-11-03T02:07:51.727Z,6.71
2022-11-03T02:10:19.121Z,6.64
2022-11-03T02:12:47.585Z,6.60
2022-11-03T02:15:17.150Z,6.60
2022-11-03T02:17:47.386Z,6.54
2022-11-03T02:20:18.446Z,6.54
2022-11-03T02:22:48.859Z,6.52
2022-11-03T02:25:38.151Z,6.50
2022-11-03T02:28:06.518Z,6.40
2022-11-03T02:30:55.629Z,6.39
2022-11-03T02:33:29.149Z,6.35
2022-11-03T02:36:11.853Z,6.34
2022-11-03T02:38:49.553Z,6.28
2022-11-03T02:41:17.809Z,6.26
2022-11-03T02:43:48.234Z,6.24
2022-11-03T02:46:16.522Z,6.19
2022-11-03T02:48:44.189Z,6.16
2022-11-03T02:51:11.663Z,6.11
2022-11-03T02:54:03.424Z,6.05
2022-11-03T02:56:31.607Z,6.03
2022-11-03T02:59:02.102Z,5.99
2022-11-03T03:01:47.550Z,5.96
2022-11-03T03:04:22.472Z,5.96
2022-11-03T03:06:55.099Z,5.94
2022-11-03T03:09:27.726Z,5.87
2022-11-03T03:11:56.058Z,5.86
2022-11-03T03:14:31.074Z,5.82
2022-11-03T03:17:06.522Z,5.77
2022-11-03T03:20:13.581Z,5.79
2022-11-03T03:22:47.893Z,5.77
2022-11-03T03:25:32.073Z,5.74
2022-11-03T03:28:09.968Z,5.72
2022-11-03T03:30:38.262Z,5.69
2022-11-03T03:33:08.143Z,5.67
2022-11-03T03:35:39.131Z,5.62
2022-11-03T03:38:12.305Z,5.63
2022-11-03T03:40:43.130Z,5.60
2022-11-03T03:43:12.872Z,5.58
2022-11-03T03:45:43.429Z,5.56
2022-11-03T03:48:10.884Z,5.51
2022-11-03T03:50:40.549Z,5.48
2022-11-03T03:53:10.829Z,5.45
2022-11-03T03:55:44.021Z,5.43
2022-11-03T03:58:14.130Z,5.42
2022-11-03T04:00:42.381Z,5.36
2022-11-03T04:03:21.820Z,5.38
2022-11-03T04:05:50.371Z,5.32
2022-11-03T04:08:18.473Z,5.36
2022-11-03T04:11:06.718Z,5.33
2022-11-03T04:13:52.594Z,5.30
2022-11-03T04:16:38.764Z,5.30
2022-11-03T04:19:24.776Z,5.29
2022-11-03T04:22:10.963Z,5.23
2022-11-03T04:24:38.222Z,5.23
2022-11-03T04:27:32.634Z,5.23
2022-11-03T04:30:20.708Z,5.20
2022-11-03T04:32:49.752Z,5.18
2022-11-03T04:35:23.340Z,5.17
2022-11-03T04:38:13.950Z,5.18
2022-11-03T04:40:49.041Z,5.16
2022-11-03T04:43:21.161Z,5.14
2022-11-03T04:45:49.991Z,5.07
2022-11-03T04:48:24.111Z,5.09
2022-11-03T04:50:56.079Z,5.07
2022-11-03T04:53:24.196Z,5.00
2022-11-03T04:55:53.417Z,5.02
2022-11-03T04:58:29.509Z,4.98
2022-11-03T05:01:00.359Z,4.95
2022-11-03T05:03:31.451Z,4.87
2022-11-03T05:05:59.621Z,4.90
2022-11-03T05:08:27.007Z,4.84
2022-11-03T05:10:54.860Z,4.82
2022-11-03T05:13:26.426Z,4.80
2022-11-03T05:16:05.134Z,4.75
2022-11-03T05:18:37.273Z,4.71
2022-11-03T05:21:13.190Z,4.63
2022-11-03T05:24:00.961Z,4.57
2022-11-03T05:26:33.917Z,4.57
2022-11-03T05:29:22.874Z,4.51
2022-11-03T05:32:47.458Z,4.57
2022-11-03T05:35:23.155Z,4.58
2022-11-03T05:37:51.720Z,4.57
2022-11-03T05:40:25.332Z,4.55
2022-11-03T05:43:01.769Z,4.58
2022-11-03T05:45:39.224Z,4.59
2022-11-03T05:48:26.971Z,4.61
2022-11-03T05:50:56.312Z,4.57
2022-11-03T05:53:29.561Z,4.64
2022-11-03T05:56:00.050Z,4.65
2022-11-03T05:58:29.143Z,4.62
2022-11-03T06:00:57.818Z,4.61
2022-11-03T06:03:28.765Z,4.64
2022-11-03T06:05:57.459Z,4.63
2022-11-03T06:08:28.232Z,4.60
2022-11-03T06:10:58.875Z,4.60
2022-11-03T06:13:38.405Z,4.65
2022-11-03T06:16:37.814Z,4.69
2022-11-03T06:19:35.918Z,4.70
2022-11-03T06:22:08.484Z,4.73
2022-11-03T06:24:36.063Z,4.77
2022-11-03T06:27:03.599Z,4.79
2022-11-03T06:29:32.901Z,4.88
2022-11-03T06:32:00.792Z,4.92
2022-11-03T06:34:31.454Z,4.97
2022-11-03T06:36:59.963Z,5.04
2022-11-03T06:39:27.473Z,5.07
2022-11-03T06:41:55.218Z,5.03
2022-11-03T06:44:25.595Z,5.00
2022-11-03T06:46:59.019Z,5.18
2022-11-03T06:49:26.100Z,5.24
2022-11-03T06:51:53.709Z,5.22
2022-11-03T06:54:21.027Z,5.33
2022-11-03T06:56:48.874Z,5.38
2022-11-03T06:59:18.664Z,5.37
2022-11-03T07:01:49.366Z,5.53
2022-11-03T07:04:20.151Z,5.59
2022-11-03T07:06:53.026Z,5.70
2022-11-03T07:09:23.392Z,5.81
2022-11-03T07:11:54.226Z,5.92
2022-11-03T07:14:29.031Z,6.10
2022-11-03T07:16:58.593Z,6.28
2022-11-03T07:19:40.564Z,6.38
2022-11-03T07:22:23.384Z,6.66
2022-11-03T07:24:53.203Z,6.89
2022-11-03T07:27:22.046Z,7.11
2022-11-03T07:29:51.736Z,7.28
2022-11-03T07:32:21.080Z,7.51
2022-11-03T07:34:50.137Z,7.70
2022-11-03T07:37:21.326Z,7.81
2022-11-03T07:39:51.022Z,7.89
2022-11-03T07:42:26.361Z,8.00
2022-11-03T07:45:00.165Z,8.22
2022-11-03T07:47:28.201Z,8.29
2022-11-03T07:49:56.693Z,8.37
2022-11-03T07:52:25.543Z,8.52
2022-11-03T07:54:55.672Z,8.72
2022-11-03T07:57:32.310Z,8.80
2022-11-03T08:00:10.231Z,8.89
2022-11-03T08:02:50.261Z,9.10
2022-11-03T08:07:45.262Z,9.31
2022-11-03T08:10:13.883Z,9.45
2022-11-03T08:12:41.407Z,9.44
2022-11-03T08:15:09.219Z,9.51
2022-11-03T08:17:36.761Z,9.69
2022-11-03T08:20:04.636Z,9.80
2022-11-03T08:22:32.243Z,10.00
2022-11-03T08:24:59.575Z,10.17
2022-11-03T08:27:27.909Z,10.31
2022-11-03T08:29:55.008Z,10.50
2022-11-03T08:32:22.731Z,10.72
2022-11-03T08:34:50.007Z,10.95
2022-11-03T08:37:17.713Z,11.28
2022-11-03T08:39:45.031Z,11.55
2022-11-03T08:42:12.651Z,11.59
2022-11-03T08:44:40.023Z,11.89
2022-11-03T08:47:08.011Z,12.29
2022-11-03T08:49:35.470Z,12.74
2022-11-03T08:52:03.108Z,13.15
2022-11-03T08:54:30.795Z,13.25
2022-11-03T08:56:58.439Z,13.84
2022-11-03T08:59:25.791Z,14.05
2022-11-03T09:01:53.334Z,13.94
2022-11-03T09:04:21.036Z,14.23
2022-11-03T09:06:48.882Z,14.80
2022-11-03T09:12:04.955Z,15.36
2022-11-03T09:14:32.290Z,15.81
2022-11-03T09:16:59.796Z,16.32
2022-11-03T09:19:27.468Z,16.51
2022-11-03T09:21:54.891Z,15.99
2022-11-03T09:24:22.446Z,15.57
2022-11-03T09:26:50.171Z,14.86
2022-11-03T09:29:17.630Z,14.23
2022-11-03T09:31:45.415Z,13.96
2022-11-03T09:34:13.120Z,13.71
2022-11-03T09:36:40.769Z,13.25
2022-11-03T09:39:08.245Z,12.81
2022-11-03T09:41:57.175Z,12.49
2022-11-03T09:44:24.407Z,12.24
2022-11-03T09:46:57.717Z,12.09
2022-11-03T09:49:26.776Z,12.16
2022-11-03T09:51:56.077Z,12.09
2022-11-03T09:54:23.460Z,12.13
2022-11-03T09:56:51.220Z,12.23
2022-11-03T09:59:21.250Z,12.23
2022-11-03T10:01:53.841Z,12.37
2022-11-03T10:04:28.603Z,12.33
2022-11-03T10:06:57.244Z,12.47
2022-11-03T10:09:25.455Z,12.24
2022-11-03T10:11:54.492Z,12.27
2022-11-03T10:14:23.094Z,12.36
2022-11-03T10:16:54.135Z,12.40
2022-11-03T10:19:21.398Z,12.50
2022-11-03T10:21:49.176Z,12.55
2022-11-03T10:24:16.645Z,12.59
2022-11-03T10:26:49.924Z,12.59
2022-11-03T10:29:24.199Z,12.66
2022-11-03T10:31:57.060Z,12.63
2022-11-03T10:34:37.773Z,12.68
2022-11-03T10:37:17.777Z,12.65
2022-11-03T10:39:46.049Z,12.58
2022-11-03T10:42:28.055Z,12.71
2022-11-03T10:45:18.250Z,12.80
2022-11-03T10:48:00.839Z,12.77
2022-11-03T10:50:28.874Z,12.73
2022-11-03T10:52:56.951Z,12.64
2022-11-03T10:55:26.863Z,12.66
2022-11-03T10:57:58.678Z,12.69
2022-11-03T11:00:26.338Z,12.66
2022-11-03T11:02:59.035Z,12.80
2022-11-03T11:05:26.987Z,12.91
2022-11-03T11:07:55.766Z,12.79
2022-11-03T11:10:29.853Z,12.68
2022-11-03T11:13:18.220Z,12.74
2022-11-03T11:15:54.694Z,12.73
2022-11-03T11:18:31.118Z,12.67
2022-11-03T11:21:01.612Z,12.63
2022-11-03T11:23:29.501Z,12.67
2022-11-03T11:26:09.153Z,12.88
2022-11-03T11:28:38.480Z,12.73
2022-11-03T11:31:24.545Z,12.72
2022-11-03T11:34:21.404Z,12.73
2022-11-03T11:36:54.964Z,12.75
2022-11-03T11:39:28.890Z,12.67
2022-11-03T11:42:19.746Z,12.76
2022-11-03T11:44:51.839Z,12.72
2022-11-03T11:47:37.876Z,12.75
2022-11-03T11:50:11.757Z,12.75
2022-11-03T11:52:42.211Z,12.67
2022-11-03T11:55:38.750Z,12.74
2022-11-03T11:58:45.217Z,12.79
2022-11-03T12:01:32.877Z,12.68
2022-11-03T12:04:31.794Z,12.58
2022-11-03T12:06:59.830Z,12.57
2022-11-03T12:09:28.459Z,12.60
2022-11-03T12:12:00.860Z,12.59
2022-11-03T12:14:36.783Z,12.56
2022-11-03T12:17:16.328Z,12.65
2022-11-03T12:19:50.523Z,12.65
2022-11-03T12:22:24.020Z,12.56
2022-11-03T12:25:15.867Z,12.60
2022-11-03T12:27:43.535Z,12.60
2022-11-03T12:30:19.289Z,12.67
2022-11-03T12:32:47.676Z,12.62
2022-11-03T12:35:16.054Z,12.71
2022-11-03T12:37:43.384Z,12.66
2022-11-03T12:40:13.264Z,12.65
2022-11-03T12:42:41.130Z,12.68
2022-11-03T12:45:09.053Z,12.74
2022-11-03T12:47:36.384Z,12.80
2022-11-03T12:50:04.683Z,12.82
2022-11-03T12:52:32.126Z,12.73
2022-11-03T12:54:59.839Z,12.86
2022-11-03T12:57:27.073Z,12.77
2022-11-03T12:59:54.768Z,12.89
2022-11-03T13:02:22.165Z,12.93
2022-11-03T13:04:50.026Z,12.95
2022-11-03T13:07:22.165Z,13.00
2022-11-03T13:09:53.342Z,13.11
2022-11-03T13:12:32.772Z,13.09
2022-11-03T13:15:02.621Z,13.02
2022-11-03T13:17:40.394Z,12.93
2022-11-03T13:20:17.560Z,12.98
2022-11-03T13:22:45.132Z,12.97
2022-11-03T13:25:12.942Z,13.09
2022-11-03T13:27:40.338Z,13.12
2022-11-03T13:30:08.776Z,13.09
2022-11-03T13:32:36.223Z,13.01
2022-11-03T13:35:08.127Z,12.95
2022-11-03T13:37:38.455Z,13.00
2022-11-03T13:40:07.300Z,13.04
2022-11-03T13:42:34.931Z,13.04
2022-11-03T13:45:02.896Z,13.05
2022-11-03T13:47:40.132Z,13.12
2022-11-03T13:50:18.617Z,13.14
2022-11-03T13:52:46.603Z,13.10
2022-11-03T14:00:49.066Z,12.97
2022-11-03T14:06:04.495Z,12.93
2022-11-03T14:08:32.234Z,12.84
2022-11-03T14:11:19.823Z,12.76
2022-11-03T14:13:47.490Z,12.62
2022-11-03T14:16:14.878Z,12.63
2022-11-03T14:18:42.798Z,12.57
2022-11-03T14:21:10.082Z,12.47
2022-11-03T14:23:37.655Z,12.37
2022-11-03T14:26:21.367Z,12.32
2022-11-03T14:28:52.867Z,12.27
2022-11-03T14:31:20.306Z,12.21
2022-11-03T14:33:48.022Z,12.08
2022-11-03T14:36:15.306Z,12.08
2022-11-03T14:38:47.567Z,11.97
2022-11-03T14:41:35.562Z,11.89
2022-11-03T14:44:03.718Z,11.83
2022-11-03T14:46:31.137Z,11.70
2022-11-03T14:48:58.478Z,11.58
2022-11-03T14:51:26.392Z,11.48
2022-11-03T14:53:54.007Z,11.33
2022-11-03T14:56:21.699Z,11.26
2022-11-03T14:58:50.402Z,11.12
2022-11-03T15:01:19.160Z,10.95
2022-11-03T15:03:46.854Z,10.80
2022-11-03T15:06:14.477Z,10.59
2022-11-03T15:08:41.799Z,10.44
2022-11-03T15:11:10.201Z,10.31
2022-11-03T15:13:43.926Z,10.11
2022-11-03T15:16:13.326Z,9.96
2022-11-03T15:18:41.788Z,9.82
2022-11-03T15:21:09.179Z,9.66
2022-11-03T15:26:25.909Z,9.30
2022-11-03T15:28:53.924Z,9.13
2022-11-03T15:31:23.790Z,8.95
2022-11-03T15:33:51.164Z,8.86
2022-11-03T15:36:19.055Z,8.72
2022-11-03T15:38:46.351Z,8.55
2022-11-03T15:41:16.753Z,8.44
2022-11-03T15:43:46.137Z,8.37
2022-11-03T15:46:14.304Z,8.26
2022-11-03T15:48:42.389Z,8.00
2022-11-03T15:51:10.492Z,7.87
2022-11-03T15:53:38.031Z,7.75
2022-11-03T15:56:06.239Z,7.65
2022-11-03T15:58:34.702Z,7.58
2022-11-03T16:01:22.697Z,7.44
2022-11-03T16:03:50.278Z,7.32
2022-11-03T16:06:18.091Z,7.22
2022-11-03T16:08:45.488Z,7.11
2022-11-03T16:11:13.040Z,7.00
2022-11-03T16:13:40.822Z,6.92
2022-11-03T16:16:08.237Z,6.82
2022-11-03T16:18:35.916Z,6.74
2022-11-03T16:21:03.464Z,6.65
2022-11-03T16:23:31.187Z,6.59
2022-11-03T16:25:58.579Z,6.50
2022-11-03T16:28:26.206Z,6.29
2022-11-03T16:30:54.675Z,6.28
2022-11-03T16:33:23.052Z,6.18
2022-11-03T16:35:50.790Z,6.02
2022-11-03T16:38:19.228Z,5.96
2022-11-03T16:40:46.545Z,5.86
2022-11-03T16:43:14.297Z,5.77
2022-11-03T16:45:41.656Z,5.75
2022-11-03T16:48:09.721Z,5.65
2022-11-03T16:50:41.415Z,5.62
2022-11-03T16:53:12.206Z,5.55
2022-11-03T16:55:39.593Z,5.51
2022-11-03T16:58:07.251Z,5.52
2022-11-03T17:00:34.594Z,5.46
2022-11-03T17:03:02.258Z,5.21
2022-11-03T17:05:29.634Z,5.15
2022-11-03T17:07:57.235Z,5.29
2022-11-03T17:10:24.879Z,5.39
2022-11-03T17:12:52.639Z,5.42
2022-11-03T17:15:20.440Z,5.54
2022-11-03T17:17:48.545Z,5.67
2022-11-03T17:20:15.955Z,5.74
2022-11-03T17:22:44.301Z,5.76
2022-11-03T17:25:12.598Z,5.77
2022-11-03T17:27:45.750Z,5.88
2022-11-03T17:30:15.404Z,5.98
2022-11-03T17:32:43.918Z,6.34
2022-11-03T17:35:24.759Z,6.60
2022-11-03T17:37:53.038Z,6.80
2022-11-03T17:40:25.655Z,6.82
2022-11-03T17:42:54.055Z,6.84
2022-11-03T17:45:23.557Z,6.78
2022-11-03T17:47:51.353Z,6.86
2022-11-03T17:50:20.874Z,6.86
2022-11-03T17:52:50.291Z,6.84
2022-11-03T17:55:30.284Z,6.79
2022-11-03T17:58:00.291Z,6.78
2022-11-03T18:00:28.603Z,6.76
2022-11-03T18:02:56.871Z,6.76
2022-11-03T18:05:31.949Z,6.72
2022-11-03T18:08:02.439Z,6.63
2022-11-03T18:10:38.977Z,6.60
2022-11-03T18:13:19.366Z,6.63
2022-11-03T18:16:05.652Z,6.57
2022-11-03T18:18:35.401Z,6.57
2022-11-03T18:21:03.281Z,6.51
2022-11-03T18:23:33.127Z,6.49
2022-11-03T18:26:06.830Z,6.41
2022-11-03T18:28:34.734Z,6.31
2022-11-03T18:31:02.434Z,6.30
2022-11-03T18:33:33.045Z,6.20
2022-11-03T18:36:03.987Z,6.18
2022-11-03T18:38:31.857Z,6.09
2022-11-03T18:40:59.149Z,6.08
2022-11-03T18:43:26.904Z,6.01
2022-11-03T18:45:54.374Z,5.95
2022-11-03T18:48:21.989Z,5.91
2022-11-03T18:50:54.823Z,5.95
2022-11-03T18:53:25.156Z,5.97
2022-11-03T18:55:54.112Z,6.03
2022-11-03T18:58:24.343Z,6.05
2022-11-03T19:00:55.770Z,6.04
2022-11-03T19:03:23.715Z,5.99
2022-11-03T19:05:53.095Z,6.00
2022-11-03T19:08:25.218Z,5.91
2022-11-03T19:10:53.443Z,5.94
2022-11-03T19:13:29.574Z,5.96
2022-11-03T19:15:58.012Z,5.99
2022-11-03T19:18:29.315Z,5.89
2022-11-03T19:20:56.804Z,5.92
2022-11-03T19:23:24.244Z,5.95
2022-11-03T19:25:57.917Z,5.91
2022-11-03T19:28:26.327Z,5.86
2022-11-03T19:30:57.745Z,5.90
2022-11-03T19:33:28.154Z,5.93
2022-11-03T19:35:58.052Z,5.94
2022-11-03T19:38:25.759Z,5.94
2022-11-03T19:41:12.124Z,5.93
2022-11-03T19:43:39.556Z,6.01
2022-11-03T19:46:12.154Z,6.00
2022-11-03T19:48:39.506Z,5.98
2022-11-03T19:51:07.427Z,6.04
2022-11-03T19:53:34.691Z,6.04
2022-11-03T19:56:02.501Z,6.07
2022-11-03T19:58:29.891Z,6.00
2022-11-03T20:00:57.986Z,5.97
2022-11-03T20:03:25.746Z,5.89
2022-11-03T20:05:57.359Z,5.85
2022-11-03T20:08:27.712Z,5.87
2022-11-03T20:10:55.675Z,5.79
2022-11-03T20:13:25.619Z,5.82
2022-11-03T20:15:59.138Z,5.80
2022-11-03T20:18:28.265Z,5.77
2022-11-03T20:20:56.291Z,5.87
2022-11-03T20:23:28.275Z,5.82
2022-11-03T20:25:56.460Z,5.86
2022-11-03T20:28:27.837Z,5.75
2022-11-03T20:30:56.420Z,5.84
2022-11-03T20:33:25.397Z,5.73
2022-11-03T20:35:54.422Z,5.75
2022-11-03T20:38:23.270Z,5.80
2022-11-03T20:40:58.312Z,5.81
2022-11-03T20:43:38.782Z,5.83
2022-11-03T20:46:18.509Z,5.75
2022-11-03T20:48:46.252Z,5.74
2022-11-03T20:51:23.229Z,5.73
2022-11-03T20:53:51.595Z,5.65
2022-11-03T20:56:22.713Z,5.60
2022-11-03T20:58:53.798Z,5.55
2022-11-03T21:01:34.183Z,5.51
2022-11-03T21:04:03.050Z,5.61
2022-11-03T21:06:32.298Z,5.56
2022-11-03T21:09:00.540Z,5.53
2022-11-03T21:11:30.925Z,5.51
2022-11-03T21:14:01.300Z,5.41
2022-11-03T21:16:48.150Z,5.37
2022-11-03T21:19:39.924Z,5.41
2022-11-03T21:22:38.317Z,5.36
2022-11-03T21:25:07.580Z,5.34
2022-11-03T21:27:39.117Z,5.36
2022-11-03T21:30:11.360Z,5.33
2022-11-03T21:32:38.781Z,5.30
2022-11-03T21:35:07.315Z,5.30
2022-11-03T21:37:34.661Z,5.27
2022-11-03T21:40:02.253Z,5.26
2022-11-03T21:42:48.310Z,5.25
2022-11-03T21:45:16.119Z,5.30
2022-11-03T21:48:03.512Z,5.31
2022-11-03T21:50:32.007Z,5.32
2022-11-03T21:52:59.557Z,5.29
2022-11-03T21:55:28.482Z,5.28
2022-11-03T21:57:55.771Z,5.26
2022-11-03T22:00:23.504Z,5.37
2022-11-03T22:02:50.862Z,5.39
2022-11-03T22:05:18.627Z,5.36
2022-11-03T22:07:46.061Z,5.43
2022-11-03T22:10:13.622Z,5.39
2022-11-03T22:12:40.948Z,5.44
2022-11-03T22:15:27.469Z,5.45
2022-11-03T22:18:01.986Z,5.43
2022-11-03T22:20:48.144Z,5.46
2022-11-03T22:23:34.432Z,5.43
2022-11-03T22:26:20.963Z,5.43
2022-11-03T22:29:08.468Z,5.39
2022-11-03T22:31:41.890Z,5.36
2022-11-03T22:34:28.109Z,5.30
2022-11-03T22:36:55.986Z,5.24
2022-11-03T22:39:42.251Z,5.22
2022-11-03T22:42:31.946Z,5.22
2022-11-03T22:45:18.028Z,5.17
2022-11-03T22:47:46.340Z,5.04
2022-11-03T22:50:14.148Z,4.99
2022-11-03T22:52:42.447Z,4.94
2022-11-03T22:55:09.913Z,4.88
2022-11-03T22:57:37.564Z,4.93
2022-11-03T23:00:05.891Z,4.93
2022-11-03T23:02:33.755Z,4.93
2022-11-03T23:05:01.023Z,4.93
2022-11-03T23:07:32.262Z,4.87
2022-11-03T23:10:04.957Z,4.86
2022-11-03T23:12:32.872Z,4.88
2022-11-03T23:15:18.592Z,4.95
2022-11-03T23:18:04.919Z,5.06
2022-11-03T23:20:50.766Z,5.06
2022-11-03T23:23:38.406Z,4.99
2022-11-03T23:26:08.769Z,4.99
2022-11-03T23:28:36.711Z,4.92
2022-11-03T23:31:04.069Z,4.90
2022-11-03T23:33:32.249Z,4.99
2022-11-03T23:36:25.894Z,5.02
2022-11-03T23:38:53.615Z,4.99
2022-11-03T23:41:21.022Z,4.94
2022-11-03T23:43:48.523Z,4.88
2022-11-03T23:46:37.206Z,4.79
2022-11-03T23:49:04.663Z,4.84
2022-11-03T23:51:33.361Z,4.90
2022-11-03T23:54:02.052Z,4.93
2022-11-03T23:56:49.498Z,4.84
2022-11-03T23:59:17.536Z,4.76
